createdAt,value
2018-12-22T00:01:31.493Z,10.54
2018-12-22T00:06:42.579Z,10.64
2018-12-22T00:09:16.127Z,10.73
2018-12-22T00:11:50.532Z,10.70
2018-12-22T00:14:23.270Z,10.71
2018-12-22T00:17:03.492Z,10.45
2018-12-22T00:22:16.196Z,10.27
2018-12-22T00:24:50.929Z,10.18
2018-12-22T00:27:23.884Z,10.02
2018-12-22T00:32:33.587Z,9.99
2018-12-22T00:35:08.173Z,9.88
2018-12-22T00:37:41.720Z,9.89
2018-12-22T00:42:53.612Z,9.70
2018-12-22T00:45:26.852Z,9.59
2018-12-22T00:48:02.078Z,9.64
2018-12-22T00:50:34.954Z,9.60
2018-12-22T00:53:09.975Z,9.54
2018-12-22T00:55:45.647Z,9.54
2018-12-22T00:58:18.201Z,9.51
2018-12-22T01:00:52.182Z,9.45
2018-12-22T01:03:26.782Z,9.47
2018-12-22T01:06:01.290Z,9.47
2018-12-22T01:11:14.623Z,9.47
2018-12-22T01:13:48.502Z,9.47
2018-12-22T01:16:21.757Z,9.49
2018-12-22T01:18:56.089Z,9.47
2018-12-22T01:21:31.416Z,9.50
2018-12-22T01:24:04.845Z,9.47
2018-12-22T01:26:38.056Z,9.47
2018-12-22T01:29:10.896Z,9.41
2018-12-22T01:31:44.022Z,9.41
2018-12-22T01:36:55.286Z,9.44
2018-12-22T01:39:26.208Z,9.44
2018-12-22T01:41:55.255Z,9.60
2018-12-22T01:44:24.292Z,9.59
2018-12-22T01:46:54.332Z,9.56
2018-12-22T01:49:23.393Z,9.60
2018-12-22T01:51:52.431Z,9.53
2018-12-22T01:54:21.494Z,9.53
2018-12-22T01:57:01.356Z,9.61
2018-12-22T01:59:42.714Z,9.67
2018-12-22T02:02:23.174Z,9.70
2018-12-22T02:05:05.886Z,9.74
2018-12-22T02:10:20.657Z,9.66
2018-12-22T02:12:55.604Z,9.67
2018-12-22T02:15:28.344Z,9.67
2018-12-22T02:18:03.810Z,9.61
2018-12-22T02:20:38.747Z,9.53
2018-12-22T02:23:13.680Z,9.55
2018-12-22T02:25:48.305Z,9.47
2018-12-22T02:28:25.141Z,9.55
2018-12-22T02:31:00.680Z,9.51
2018-12-22T02:33:30.059Z,9.57
2018-12-22T02:35:59.160Z,9.52
2018-12-22T02:38:30.281Z,9.65
2018-12-22T02:40:59.190Z,9.73
2018-12-22T02:46:04.018Z,9.83
2018-12-22T02:48:33.076Z,9.78
2018-12-22T02:51:02.139Z,9.82
2018-12-22T02:56:07.204Z,9.81
2018-12-22T02:58:36.547Z,9.76
2018-12-22T03:01:05.585Z,9.86
2018-12-22T03:03:34.625Z,9.82
2018-12-22T03:06:03.682Z,9.80
2018-12-22T03:08:32.731Z,9.76
2018-12-22T03:14:09.446Z,9.66
2018-12-22T03:16:38.507Z,9.62
2018-12-22T03:19:07.554Z,9.64
2018-12-22T03:21:36.602Z,9.71
2018-12-22T03:24:05.635Z,9.69
2018-12-22T03:26:34.705Z,9.76
2018-12-22T03:29:03.790Z,9.69
2018-12-22T03:31:32.830Z,9.73
2018-12-22T03:34:01.875Z,9.78
2018-12-22T03:36:30.932Z,9.77
2018-12-22T03:39:00.004Z,9.84
2018-12-22T03:41:29.076Z,9.96
2018-12-22T03:43:58.117Z,10.08
2018-12-22T03:49:02.894Z,10.17
2018-12-22T03:51:31.944Z,10.16
2018-12-22T03:54:01.003Z,10.23
2018-12-22T03:59:05.839Z,10.32
2018-12-22T04:01:34.899Z,10.37
2018-12-22T04:04:03.948Z,10.53
2018-12-22T04:09:09.777Z,10.56
2018-12-22T04:11:38.831Z,10.68
2018-12-22T04:14:08.410Z,10.70
2018-12-22T04:16:37.443Z,10.77
2018-12-22T04:19:06.487Z,10.64
2018-12-22T04:21:35.575Z,10.77
2018-12-22T04:24:04.716Z,10.90
2018-12-22T04:26:33.667Z,10.92
2018-12-22T04:29:14.942Z,10.86
2018-12-22T04:31:52.731Z,11.11
2018-12-22T04:34:34.741Z,11.06
2018-12-22T04:37:15.573Z,11.10
2018-12-22T04:39:53.393Z,11.28
2018-12-22T04:45:15.572Z,11.17
2018-12-22T04:47:57.505Z,11.19
2018-12-22T04:50:37.397Z,11.12
2018-12-22T04:53:18.550Z,11.23
2018-12-22T04:56:00.357Z,11.22
2018-12-22T04:58:29.647Z,11.28
2018-12-22T05:00:58.675Z,11.16
2018-12-22T05:03:28.699Z,11.14
2018-12-22T05:05:58.688Z,11.10
2018-12-22T05:08:27.749Z,11.10
2018-12-22T05:13:32.609Z,11.25
2018-12-22T05:16:01.613Z,11.27
2018-12-22T05:18:30.667Z,11.18
2018-12-22T05:23:35.909Z,11.06
2018-12-22T05:26:04.969Z,11.00
2018-12-22T05:28:34.019Z,11.01
2018-12-22T05:33:38.268Z,11.09
2018-12-22T05:36:07.316Z,11.18
2018-12-22T05:38:37.279Z,11.23
2018-12-22T05:41:06.331Z,11.17
2018-12-22T05:43:35.387Z,11.21
2018-12-22T05:46:04.449Z,11.18
2018-12-22T05:48:33.522Z,11.06
2018-12-22T05:51:02.579Z,10.89
2018-12-22T05:53:31.628Z,10.91
2018-12-22T05:56:00.673Z,10.95
2018-12-22T05:58:29.773Z,10.94
2018-12-22T06:00:58.818Z,11.09
2018-12-22T06:03:27.866Z,10.96
2018-12-22T06:06:02.776Z,10.93
2018-12-22T06:08:31.906Z,11.02
2018-12-22T06:11:01.161Z,11.03
2018-12-22T06:13:30.143Z,11.12
2018-12-22T06:16:00.114Z,11.02
2018-12-22T06:18:29.142Z,11.07
2018-12-22T06:23:34.353Z,10.98
2018-12-22T06:26:04.034Z,10.97
2018-12-22T06:28:33.092Z,11.23
2018-12-22T06:31:02.163Z,11.26
2018-12-22T06:33:31.205Z,11.22
2018-12-22T06:36:00.317Z,11.13
2018-12-22T06:41:05.210Z,11.16
2018-12-22T06:43:34.255Z,11.33
2018-12-22T06:46:03.355Z,11.17
2018-12-22T06:48:32.458Z,11.15
2018-12-22T06:51:01.522Z,11.07
2018-12-22T06:53:30.589Z,11.17
2018-12-22T06:55:59.651Z,11.23
2018-12-22T06:58:32.104Z,11.18
2018-12-22T07:01:06.612Z,11.20
2018-12-22T07:03:35.675Z,11.37
2018-12-22T07:06:04.759Z,11.43
2018-12-22T07:08:33.805Z,11.42
2018-12-22T07:11:02.883Z,11.38
2018-12-22T07:13:31.995Z,11.40
2018-12-22T07:16:01.023Z,11.40
2018-12-22T07:21:08.924Z,11.43
2018-12-22T07:23:37.964Z,11.36
2018-12-22T07:26:07.090Z,11.37
2018-12-22T07:33:47.654Z,11.32
2018-12-22T07:36:16.693Z,11.35
2018-12-22T07:38:45.758Z,11.33
2018-12-22T07:41:14.795Z,11.32
2018-12-22T07:43:43.855Z,11.35
2018-12-22T07:46:13.885Z,11.34
2018-12-22T07:48:43.870Z,11.27
2018-12-22T07:51:12.927Z,11.35
2018-12-22T07:53:42.926Z,11.34
2018-12-22T07:56:12.072Z,11.41
2018-12-22T07:58:41.095Z,11.40
2018-12-22T08:03:48.817Z,11.44
2018-12-22T08:06:26.673Z,11.43
2018-12-22T08:08:56.389Z,11.46
2018-12-22T08:11:25.467Z,11.47
2018-12-22T08:13:54.563Z,11.56
2018-12-22T08:19:00.386Z,11.41
2018-12-22T08:21:29.556Z,11.49
2018-12-22T08:26:34.411Z,11.30
2018-12-22T08:31:44.926Z,11.12
2018-12-22T08:34:13.967Z,11.14
2018-12-22T08:39:18.980Z,10.95
2018-12-22T08:44:23.751Z,10.91
2018-12-22T08:46:52.838Z,10.92
2018-12-22T08:49:21.887Z,10.96
2018-12-22T08:54:26.702Z,10.95
2018-12-22T08:56:55.757Z,10.92
2018-12-22T08:59:25.797Z,10.93
2018-12-22T09:01:54.842Z,10.96
2018-12-22T09:04:23.858Z,10.89
2018-12-22T09:06:52.917Z,10.92
2018-12-22T09:09:21.991Z,10.93
2018-12-22T09:11:51.040Z,10.99
2018-12-22T09:14:20.151Z,11.00
2018-12-22T09:16:49.209Z,10.97
2018-12-22T09:19:18.271Z,11.03
2018-12-22T09:21:47.332Z,11.04
2018-12-22T09:24:16.368Z,11.10
2018-12-22T09:26:45.451Z,11.13
2018-12-22T09:29:14.510Z,11.13
2018-12-22T09:31:43.550Z,11.08
2018-12-22T09:34:13.379Z,11.07
2018-12-22T09:36:41.744Z,11.11
2018-12-22T09:39:10.795Z,11.11
2018-12-22T09:44:18.574Z,11.27
2018-12-22T09:46:47.633Z,11.25
2018-12-22T09:49:16.683Z,11.29
2018-12-22T09:51:45.723Z,11.33
2018-12-22T09:54:14.895Z,11.31
2018-12-22T09:59:19.554Z,11.43
2018-12-22T10:04:25.181Z,11.35
2018-12-22T10:06:54.227Z,11.31
2018-12-22T10:11:59.007Z,11.34
2018-12-22T10:14:28.079Z,11.30
2018-12-22T10:19:32.843Z,11.22
2018-12-22T10:22:04.532Z,11.11
2018-12-22T10:24:36.781Z,11.17
2018-12-22T10:27:18.574Z,11.06
2018-12-22T10:29:48.160Z,11.10
2018-12-22T10:32:18.348Z,10.99
2018-12-22T10:34:47.542Z,10.93
2018-12-22T10:37:16.671Z,10.89
2018-12-22T10:39:45.719Z,10.82
2018-12-22T10:47:26.321Z,10.76
2018-12-22T10:52:31.140Z,10.75
2018-12-22T10:55:00.289Z,10.76
2018-12-22T10:57:30.194Z,10.77
2018-12-22T10:59:59.230Z,10.70
2018-12-22T11:02:28.279Z,10.63
2018-12-22T11:04:57.734Z,10.68
2018-12-22T11:07:31.295Z,10.67
2018-12-22T11:10:00.343Z,10.65
2018-12-22T11:12:30.296Z,10.65
2018-12-22T11:14:59.542Z,10.71
2018-12-22T11:17:28.622Z,10.63
2018-12-22T11:19:57.717Z,10.62
2018-12-22T11:22:27.647Z,10.61
2018-12-22T11:24:56.695Z,10.59
2018-12-22T11:27:25.760Z,10.68
2018-12-22T11:29:54.818Z,10.66
2018-12-22T11:32:24.612Z,10.70
2018-12-22T11:37:29.379Z,10.69
2018-12-22T11:39:58.634Z,10.74
2018-12-22T11:42:27.668Z,10.70
2018-12-22T11:44:56.708Z,10.66
2018-12-22T11:47:25.856Z,10.60
2018-12-22T11:52:32.218Z,10.59
2018-12-22T11:55:01.319Z,10.58
2018-12-22T11:57:30.367Z,10.54
2018-12-22T11:59:59.733Z,10.58
2018-12-22T12:02:28.811Z,10.59
2018-12-22T12:04:57.901Z,10.51
2018-12-22T12:07:27.953Z,10.55
2018-12-22T12:09:57.030Z,10.57
2018-12-22T12:12:26.978Z,10.52
2018-12-22T12:14:56.043Z,10.50
2018-12-22T12:17:30.840Z,10.48
2018-12-22T12:19:59.883Z,10.52
2018-12-22T12:22:28.935Z,10.49
2018-12-22T12:24:58.192Z,10.47
2018-12-22T12:27:27.240Z,10.41
2018-12-22T12:29:56.331Z,10.40
2018-12-22T12:32:26.672Z,10.43
2018-12-22T12:34:55.735Z,10.44
2018-12-22T12:37:24.783Z,10.36
2018-12-22T12:39:53.923Z,10.37
2018-12-22T12:42:23.023Z,10.28
2018-12-22T12:44:52.369Z,10.37
2018-12-22T12:47:21.499Z,10.36
2018-12-22T12:49:50.550Z,10.37
2018-12-22T12:52:20.563Z,10.46
2018-12-22T12:54:49.596Z,10.39
2018-12-22T12:57:19.543Z,10.45
2018-12-22T12:59:48.583Z,10.49
2018-12-22T13:02:17.629Z,10.49
2018-12-22T13:07:23.410Z,10.60
2018-12-22T13:12:28.128Z,10.79
2018-12-22T13:17:33.769Z,11.03
2018-12-22T13:20:02.829Z,11.09
2018-12-22T13:22:31.913Z,11.05
2018-12-22T13:27:36.731Z,10.94
2018-12-22T13:30:07.767Z,10.74
2018-12-22T13:35:12.526Z,10.58
2018-12-22T13:37:41.691Z,10.62
2018-12-22T13:40:11.734Z,10.59
2018-12-22T13:42:40.866Z,10.52
2018-12-22T13:45:11.611Z,10.67
2018-12-22T13:47:41.016Z,10.95
2018-12-22T13:50:12.964Z,10.98
2018-12-22T13:52:41.996Z,11.13
2018-12-22T13:57:47.322Z,10.88
2018-12-22T14:00:20.230Z,10.75
2018-12-22T14:05:25.072Z,10.68
2018-12-22T14:07:54.206Z,10.60
2018-12-22T14:10:23.279Z,10.60
2018-12-22T14:12:52.325Z,10.58
2018-12-22T14:15:23.390Z,10.55
2018-12-22T14:18:11.058Z,10.50
2018-12-22T14:20:40.362Z,10.37
2018-12-22T14:23:09.425Z,10.11
2018-12-22T14:25:38.511Z,10.01
2018-12-22T14:30:43.311Z,10.00
2018-12-22T14:35:51.622Z,9.62
2018-12-22T14:38:20.700Z,9.40
2018-12-22T14:40:49.736Z,9.13
2018-12-22T14:43:19.773Z,8.97
2018-12-22T14:45:51.390Z,8.73
2018-12-22T14:48:20.457Z,8.72
2018-12-22T14:50:49.480Z,8.50
2018-12-22T14:53:21.773Z,8.56
2018-12-22T14:55:55.147Z,8.43
2018-12-22T14:58:24.196Z,8.24
2018-12-22T15:00:57.279Z,8.23
2018-12-22T15:03:26.322Z,8.23
2018-12-22T15:05:55.391Z,8.09
2018-12-22T15:08:24.417Z,8.06
2018-12-22T15:10:53.508Z,8.03
2018-12-22T15:13:22.543Z,8.10
2018-12-22T15:15:51.697Z,8.19
2018-12-22T15:18:20.859Z,8.32
2018-12-22T15:20:49.900Z,8.31
2018-12-22T15:23:19.070Z,8.34
2018-12-22T15:25:48.101Z,8.39
2018-12-22T15:28:17.201Z,8.44
2018-12-22T15:30:46.712Z,8.38
2018-12-22T15:33:15.270Z,8.46
2018-12-22T15:38:20.131Z,8.42
2018-12-22T15:40:50.205Z,8.44
2018-12-22T15:43:19.237Z,8.48
2018-12-22T15:48:24.048Z,8.49
2018-12-22T15:50:53.097Z,8.54
2018-12-22T15:53:22.190Z,8.58
2018-12-22T15:55:51.230Z,8.56
2018-12-22T15:58:20.270Z,8.48
2018-12-22T16:00:49.326Z,8.54
2018-12-22T16:03:18.370Z,8.52
2018-12-22T16:05:47.431Z,8.45
2018-12-22T16:08:16.478Z,8.51
2018-12-22T16:10:45.534Z,8.54
2018-12-22T16:13:14.589Z,8.53
2018-12-22T16:18:28.280Z,8.53
2018-12-22T16:23:33.057Z,8.52
2018-12-22T16:26:02.222Z,8.52
2018-12-22T16:28:31.148Z,8.38
2018-12-22T16:31:00.176Z,8.41
2018-12-22T16:33:29.222Z,8.41
2018-12-22T16:35:58.286Z,8.30
2018-12-22T16:38:28.240Z,8.30
2018-12-22T16:40:57.283Z,8.09
2018-12-22T16:46:03.103Z,7.93
2018-12-22T16:48:32.168Z,7.81
2018-12-22T16:51:01.277Z,7.68
2018-12-22T16:53:30.326Z,7.59
2018-12-22T16:55:59.370Z,7.52
2018-12-22T16:58:28.463Z,7.44
2018-12-22T17:00:59.304Z,7.43
2018-12-22T17:03:28.359Z,7.34
2018-12-22T17:05:58.371Z,7.25
2018-12-22T17:08:27.432Z,7.19
2018-12-22T17:10:56.482Z,7.21
2018-12-22T17:13:26.471Z,7.25
2018-12-22T17:15:55.551Z,7.22
2018-12-22T17:18:24.614Z,7.27
2018-12-22T17:20:55.602Z,7.25
2018-12-22T17:26:35.045Z,7.18
2018-12-22T17:29:05.594Z,7.22
2018-12-22T17:31:37.093Z,7.20
2018-12-22T17:34:06.355Z,7.21
2018-12-22T17:36:37.535Z,7.18
2018-12-22T17:39:06.784Z,7.13
2018-12-22T17:41:36.861Z,7.18
2018-12-22T17:44:06.097Z,7.21
2018-12-22T17:49:13.911Z,7.24
2018-12-22T17:51:42.976Z,7.38
2018-12-22T17:54:12.040Z,7.43
2018-12-22T17:56:42.006Z,7.47
2018-12-22T17:59:11.067Z,7.48
2018-12-22T18:01:40.111Z,7.50
2018-12-22T18:04:09.162Z,7.54
2018-12-22T18:06:38.266Z,7.45
2018-12-22T18:09:08.386Z,7.34
2018-12-22T18:11:37.450Z,7.27
2018-12-22T18:16:41.819Z,7.32
2018-12-22T18:19:10.846Z,7.40
2018-12-22T18:21:41.809Z,7.42
2018-12-22T18:24:10.844Z,7.19
2018-12-22T18:26:40.545Z,7.02
2018-12-22T18:29:12.522Z,6.97
2018-12-22T18:31:41.202Z,6.88
2018-12-22T18:34:09.708Z,6.86
2018-12-22T18:36:38.334Z,6.93
2018-12-22T18:39:06.799Z,7.01
2018-12-22T18:41:35.327Z,7.06
2018-12-22T18:44:03.908Z,7.14
2018-12-22T18:46:32.663Z,7.16
2018-12-22T18:49:01.214Z,7.12
2018-12-22T18:51:29.798Z,7.11
2018-12-22T18:53:58.375Z,7.17
2018-12-22T18:56:28.125Z,7.21
2018-12-22T18:58:56.678Z,7.19
2018-12-22T19:01:29.982Z,7.18
2018-12-22T19:04:02.861Z,7.26
2018-12-22T19:06:35.450Z,7.30
2018-12-22T19:09:11.206Z,7.35
2018-12-22T19:11:45.620Z,7.36
2018-12-22T19:14:19.116Z,7.35
2018-12-22T19:16:54.671Z,7.31
2018-12-22T19:19:27.996Z,7.34
2018-12-22T19:21:59.835Z,7.37
2018-12-22T19:24:44.124Z,7.40
2018-12-22T19:27:21.855Z,7.41
2018-12-22T19:29:56.522Z,7.40
2018-12-22T19:32:30.975Z,7.50
2018-12-22T19:35:08.793Z,7.55
2018-12-22T19:37:44.312Z,7.62
2018-12-22T19:40:19.893Z,7.72
2018-12-22T19:42:53.314Z,7.75
2018-12-22T19:45:27.828Z,7.75
2018-12-22T19:48:05.987Z,7.78
2018-12-22T19:50:44.415Z,7.82
2018-12-22T19:53:13.616Z,7.82
2018-12-22T19:55:49.958Z,7.81
2018-12-22T19:58:19.161Z,7.82
2018-12-22T20:00:52.128Z,7.72
2018-12-22T20:03:21.994Z,7.74
2018-12-22T20:05:55.481Z,7.73
2018-12-22T20:08:26.594Z,7.76
2018-12-22T20:10:55.286Z,7.67
2018-12-22T20:13:24.823Z,7.60
2018-12-22T20:15:53.539Z,7.68
2018-12-22T20:18:22.162Z,7.67
2018-12-22T20:20:50.741Z,7.59
2018-12-22T20:23:19.271Z,7.64
2018-12-22T20:25:47.779Z,7.54
2018-12-22T20:28:16.345Z,7.41
2018-12-22T20:30:44.883Z,7.41
2018-12-22T20:33:13.411Z,7.52
2018-12-22T20:35:41.936Z,7.48
2018-12-22T20:38:10.447Z,7.48
2018-12-22T20:40:39.901Z,7.51
2018-12-22T20:43:08.728Z,7.63
2018-12-22T20:45:37.702Z,7.63
2018-12-22T20:48:07.015Z,7.58
2018-12-22T20:50:35.534Z,7.61
2018-12-22T20:53:04.069Z,7.60
2018-12-22T20:55:32.607Z,7.56
2018-12-22T20:58:01.271Z,7.55
2018-12-22T21:00:31.096Z,7.53
2018-12-22T21:03:00.535Z,7.49
2018-12-22T21:05:29.090Z,7.46
2018-12-22T21:07:57.633Z,7.34
2018-12-22T21:10:30.206Z,7.40
2018-12-22T21:12:59.023Z,7.37
2018-12-22T21:15:27.507Z,7.32
2018-12-22T21:17:56.030Z,7.38
2018-12-22T21:20:24.571Z,7.29
2018-12-22T21:22:53.085Z,7.30
2018-12-22T21:25:21.606Z,7.33
2018-12-22T21:27:50.159Z,7.32
2018-12-22T21:30:18.720Z,7.28
2018-12-22T21:32:49.162Z,7.19
2018-12-22T21:35:17.677Z,7.24
2018-12-22T21:37:50.016Z,7.26
2018-12-22T21:40:18.510Z,7.32
2018-12-22T21:42:47.016Z,7.33
2018-12-22T21:45:15.537Z,7.42
2018-12-22T21:47:44.060Z,7.53
2018-12-22T21:50:12.590Z,7.54
2018-12-22T21:52:41.157Z,7.51
2018-12-22T21:55:09.701Z,7.65
2018-12-22T21:57:38.318Z,7.61
2018-12-22T22:00:06.847Z,7.66
2018-12-22T22:02:35.415Z,7.70
2018-12-22T22:05:03.910Z,7.71
2018-12-22T22:07:32.472Z,7.56
2018-12-22T22:10:01.072Z,7.59
2018-12-22T22:12:29.673Z,7.54
2018-12-22T22:14:58.188Z,7.64
2018-12-22T22:17:26.706Z,7.61
2018-12-22T22:20:02.802Z,7.72
2018-12-22T22:22:31.338Z,7.78
2018-12-22T22:24:59.850Z,7.59
2018-12-22T22:27:28.642Z,7.49
2018-12-22T22:29:57.379Z,7.57
2018-12-22T22:32:25.907Z,7.58
2018-12-22T22:34:54.538Z,7.62
2018-12-22T22:37:23.274Z,7.66
2018-12-22T22:39:52.043Z,7.67
2018-12-22T22:42:20.503Z,7.73
2018-12-22T22:44:49.018Z,7.80
2018-12-22T22:47:17.593Z,7.70
2018-12-22T22:49:46.090Z,7.66
2018-12-22T22:52:15.000Z,7.69
2018-12-22T22:54:43.844Z,7.61
2018-12-22T22:57:12.459Z,7.70
2018-12-22T22:59:40.985Z,7.63
2018-12-22T23:02:10.410Z,7.65
2018-12-22T23:04:38.942Z,7.57
2018-12-22T23:07:07.450Z,7.60
2018-12-22T23:09:36.888Z,7.64
2018-12-22T23:12:07.436Z,7.60
2018-12-22T23:14:35.975Z,7.63
2018-12-22T23:17:04.481Z,7.64
2018-12-22T23:19:35.001Z,7.75
2018-12-22T23:22:01.566Z,7.78
2018-12-22T23:24:30.087Z,7.86
2018-12-22T23:26:58.602Z,7.82
2018-12-22T23:29:27.204Z,7.86
2018-12-22T23:31:55.697Z,7.93
2018-12-22T23:34:24.236Z,8.02
2018-12-22T23:36:57.177Z,8.00
2018-12-22T23:39:25.752Z,7.98
2018-12-22T23:41:54.255Z,7.92
2018-12-22T23:44:22.773Z,7.89
2018-12-22T23:46:51.368Z,7.83
2018-12-22T23:49:19.899Z,7.77
2018-12-22T23:51:48.459Z,7.68
2018-12-22T23:54:16.951Z,7.57
2018-12-22T23:56:45.469Z,7.56
2018-12-22T23:59:13.981Z,7.51
